Impacts TAF Board INFO
FOR SITUATIONAL AWARENESS. NOT TO BE USED FOR FLIGHT PLANNING PURPOSES.
IDs:

KSFO - San Francisco Intl, CA, US

Issued at 0300 UTC 18 Dec 2017
Updated at 0301 UTC 18 Dec 2017
Potential Impact None Slight Moderate High
Time0256Z 18/03Z 18/04Z 18/05Z 18/06Z 18/07Z 18/08Z 18/09Z 18/10Z 18/11Z 18/12Z 18/13Z 18/14Z 18/15Z>>
Type OBS PRVL PRVL PRVL PRVL PRVL PRVL PRVL PRVL PRVL PRVL PRVL PRVL PRVL
VIS 10 >6 >6 >6 >6 >6 >6 >6 >6 >6 >6 >6 >6 >6
CIG 200 -- -- -- -- -- -- -- -- -- -- -- -- --
Cover BKN SCT SCT SCT SCT SCT SCT SCT SCT SCT SCT SCT SCT SCT
FltCat VFR VFR VFR VFR VFR VFR VFR VFR VFR VFR VFR VFR VFR VFR
WX -- -- -- -- -- -- -- -- -- -- -- -- -- --
WDir VRB VRB VRB VRB VRB VRB VRB VRB VRB VRB VRB VRB VRB VRB
WSpd 0 3 3 3 3 3 3 3 3 3 3 3 3 3
WGst -- -- -- -- -- -- -- -- -- -- -- -- -- --

Raw TAF
KSFO 180300Z 1803/1906 VRB03KT P6SM SCT250
  FM182300 31006KT P6SM BKN250
  FM190500 VRB03KT P6SM BKN250


Raw METAR
KSFO 180256Z 00000KT 10SM BKN200 12/M01 A3007 RMK AO2 SLP182 T01171006 53017
KSFO 180156Z 28006KT 10SM BKN200 13/M01 A3005 RMK AO2 SLP176 T01331011
KSFO 180056Z 29005KT 10SM SCT200 14/M01 A3003 RMK AO2 SLP169 T01441006
KSFO 172356Z 35003KT 10SM FEW200 16/M01 A3002 RMK AO2 SLP165 T01611006 10172 20139 55000

METAR Board
Radar Display
Forecast Discussion

FOR SITUATIONAL AWARENESS. NOT TO BE USED FOR FLIGHT PLANNING PURPOSES.